Time;durP1;ratioP1;P1;durP2;ratioP2;P2;SDS_P1;SDS_P2;PMS_P1;PMS_P2;Temp;Humidity;BMP_temperature;BMP_pressure;BME280_temperature;BME280_humidity;BME280_pressure;Samples;Min_cycle;Max_cycle;Signal;HPM_P1;HPM_P2
2024/01/23 00:02:02;;;;;;;16.17;1.67;;;7.80;99.90;;;;;;5031050;28;20052;-75
2024/01/23 00:04:28;;;;;;;20.77;1.90;;;7.80;99.90;;;;;;5029633;28;20029;-72
2024/01/23 00:06:53;;;;;;;12.63;1.35;;;7.80;99.90;;;;;;5036260;28;20545;-72
2024/01/23 00:09:19;;;;;;;18.77;2.45;;;7.80;99.90;;;;;;5038137;28;20029;-72
2024/01/23 00:11:45;;;;;;;22.77;2.15;;;7.80;99.90;;;;;;5042189;28;20384;-72
2024/01/23 00:14:10;;;;;;;23.58;1.60;;;7.70;99.90;;;;;;5050956;28;20107;-72
2024/01/23 00:16:36;;;;;;;16.15;2.22;;;7.80;99.90;;;;;;5052718;28;20045;-72
2024/01/23 00:19:02;;;;;;;15.15;1.40;;;7.70;99.90;;;;;;5040504;28;20040;-72
2024/01/23 00:21:28;;;;;;;24.17;1.85;;;7.70;99.90;;;;;;5046988;28;20026;-72
2024/01/23 00:23:53;;;;;;;14.02;1.13;;;7.70;99.90;;;;;;5040417;28;20033;-73
2024/01/23 00:26:19;;;;;;;18.02;1.60;;;7.70;99.90;;;;;;5051899;28;20026;-72
2024/01/23 00:28:45;;;;;;;20.25;1.17;;;7.70;99.90;;;;;;5056601;28;20017;-72
2024/01/23 00:31:11;;;;;;;14.85;1.25;;;7.70;99.90;;;;;;5045312;28;20032;-73
2024/01/23 00:33:36;;;;;;;22.42;2.95;;;7.60;99.90;;;;;;5045665;28;20021;-73
2024/01/23 00:36:02;;;;;;;14.73;1.40;;;7.70;99.90;;;;;;5058678;28;20099;-73
2024/01/23 00:38:28;;;;;;;20.23;1.55;;;7.70;99.90;;;;;;5043427;28;20033;-73
2024/01/23 00:40:53;;;;;;;18.08;2.72;;;7.70;99.90;;;;;;5050093;28;20032;-73
2024/01/23 00:43:19;;;;;;;19.75;1.77;;;7.70;99.90;;;;;;5039676;28;20033;-73
2024/01/23 00:45:44;;;;;;;18.65;2.05;;;7.80;99.90;;;;;;5053035;28;20374;-74
2024/01/23 00:48:10;;;;;;;22.48;1.75;;;7.70;99.90;;;;;;5032657;28;20021;-72
2024/01/23 00:50:36;;;;;;;11.95;0.98;;;7.70;99.90;;;;;;5040187;28;20021;-73
2024/01/23 00:53:01;;;;;;;17.15;1.40;;;7.70;99.90;;;;;;5032420;28;20037;-74
2024/01/23 00:55:27;;;;;;;16.55;1.58;;;7.80;99.90;;;;;;5038021;28;20029;-73
2024/01/23 00:57:52;;;;;;;18.60;2.78;;;7.70;99.90;;;;;;5051216;28;20108;-73
2024/01/23 01:00:18;;;;;;;15.00;1.65;;;7.70;99.90;;;;;;5055347;28;20098;-74
2024/01/23 01:02:44;;;;;;;12.38;1.90;;;7.70;99.90;;;;;;5040577;28;20029;-73
2024/01/23 01:05:10;;;;;;;20.83;3.25;;;7.70;99.90;;;;;;5058161;28;20025;-73
2024/01/23 01:07:35;;;;;;;20.63;1.38;;;7.70;99.90;;;;;;5041369;28;20021;-73
2024/01/23 01:10:01;;;;;;;19.00;1.63;;;7.60;99.90;;;;;;5038042;28;20405;-73
2024/01/23 01:12:26;;;;;;;26.42;2.20;;;7.60;99.90;;;;;;5050953;28;20020;-73
2024/01/23 01:14:52;;;;;;;18.27;1.50;;;7.60;99.90;;;;;;5039969;28;20040;-73
2024/01/23 01:17:17;;;;;;;14.40;1.27;;;7.60;99.90;;;;;;5045809;28;20045;-73
2024/01/23 01:19:43;;;;;;;19.73;1.75;;;7.50;99.90;;;;;;5038225;28;20032;-73
2024/01/23 01:22:08;;;;;;;24.35;2.67;;;7.50;99.90;;;;;;5030277;28;20128;-74
2024/01/23 01:24:35;;;;;;;18.17;1.85;;;7.50;99.90;;;;;;5039309;28;20481;-74
2024/01/23 01:27:01;;;;;;;17.67;2.15;;;7.40;99.90;;;;;;5036076;28;20021;-72
2024/01/23 01:29:26;;;;;;;23.27;2.00;;;7.40;99.90;;;;;;5029415;28;20022;-72
2024/01/23 01:31:52;;;;;;;14.68;1.25;;;7.30;99.90;;;;;;5045062;28;20033;-73
2024/01/23 01:34:18;;;;;;;28.13;2.03;;;7.30;99.90;;;;;;5045133;28;20033;-73
2024/01/23 01:36:44;;;;;;;24.05;2.13;;;7.20;99.90;;;;;;5037976;28;20094;-72
2024/01/23 01:39:12;;;;;;;25.08;2.10;;;7.10;99.90;;;;;;5040788;28;20081;-73
2024/01/23 01:41:37;;;;;;;21.60;1.90;;;7.10;99.90;;;;;;5054139;28;20033;-75
2024/01/23 01:44:03;;;;;;;18.23;1.90;;;7.00;99.90;;;;;;5050058;28;20055;-74
2024/01/23 01:46:29;;;;;;;22.80;3.10;;;7.00;99.90;;;;;;5043463;28;20025;-72
2024/01/23 01:48:55;;;;;;;20.20;2.08;;;6.90;99.90;;;;;;5051053;28;20033;-72
2024/01/23 01:51:24;;;;;;;20.13;2.38;;;6.90;99.90;;;;;;5041093;28;20377;-72
2024/01/23 01:53:50;;;;;;;21.73;1.77;;;6.80;99.90;;;;;;5039839;28;20376;-72
2024/01/23 01:56:18;;;;;;;20.33;2.35;;;6.80;99.90;;;;;;5036885;28;20459;-73
2024/01/23 01:58:45;;;;;;;25.00;1.73;;;6.70;99.90;;;;;;5033585;28;20013;-73
2024/01/23 02:01:11;;;;;;;19.73;1.85;;;6.80;99.90;;;;;;5043996;28;20029;-72
2024/01/23 02:03:37;;;;;;;17.30;2.60;;;6.70;99.90;;;;;;5051335;28;20029;-72
2024/01/23 02:06:04;;;;;;;18.67;1.60;;;6.70;99.90;;;;;;5043307;28;20393;-72
2024/01/23 02:08:30;;;;;;;20.00;2.45;;;6.70;99.90;;;;;;5036940;28;20446;-73
2024/01/23 02:10:56;;;;;;;24.25;2.90;;;6.60;99.90;;;;;;5045247;28;20021;-73
2024/01/23 02:13:22;;;;;;;18.30;2.47;;;6.60;99.90;;;;;;5053096;28;20294;-73
2024/01/23 02:15:48;;;;;;;19.95;2.03;;;6.60;99.90;;;;;;5044764;28;20033;-72
2024/01/23 02:18:14;;;;;;;26.40;1.98;;;6.60;99.90;;;;;;5054279;28;20104;-73
2024/01/23 02:20:40;;;;;;;20.15;3.05;;;6.60;99.90;;;;;;5059839;28;20021;-73
2024/01/23 02:23:13;;;;;;;25.90;1.60;;;6.60;99.90;;;;;;5043853;28;20022;-72
2024/01/23 02:25:40;;;;;;;24.75;2.25;;;6.60;99.90;;;;;;5035079;28;20075;-73
2024/01/23 02:28:07;;;;;;;26.95;2.55;;;6.60;99.90;;;;;;5057564;28;20029;-73
2024/01/23 02:30:34;;;;;;;21.42;1.95;;;6.60;99.90;;;;;;5045243;28;20021;-73
2024/01/23 02:33:03;;;;;;;28.38;2.60;;;6.60;99.90;;;;;;5048554;28;20029;-72
2024/01/23 02:35:30;;;;;;;32.05;1.77;;;6.60;99.90;;;;;;5035359;28;20766;-73
2024/01/23 02:37:56;;;;;;;17.00;1.55;;;6.60;99.90;;;;;;5041534;28;20083;-73
2024/01/23 02:40:22;;;;;;;16.98;1.80;;;6.60;99.90;;;;;;5047929;28;20041;-73
2024/01/23 02:42:48;;;;;;;24.85;2.45;;;6.60;99.90;;;;;;5051378;28;20037;-73
2024/01/23 02:45:13;;;;;;;16.55;1.58;;;6.60;99.90;;;;;;5040949;28;20413;-73
2024/01/23 02:47:39;;;;;;;27.67;2.03;;;6.60;99.90;;;;;;5046469;28;20024;-73
2024/01/23 02:50:05;;;;;;;19.08;1.58;;;6.60;99.90;;;;;;5043861;28;20029;-73
2024/01/23 02:52:31;;;;;;;21.63;2.55;;;6.70;99.90;;;;;;5046267;28;20080;-73
2024/01/23 02:54:58;;;;;;;18.17;1.85;;;6.80;99.90;;;;;;5041087;28;20017;-73
2024/01/23 02:57:25;;;;;;;15.90;2.30;;;6.80;99.90;;;;;;5048832;28;20048;-72
2024/01/23 02:59:54;;;;;;;27.33;2.60;;;6.80;99.90;;;;;;5046195;28;20510;-72
2024/01/23 03:02:23;;;;;;;18.20;1.83;;;6.80;99.90;;;;;;5034926;28;20049;-72
2024/01/23 03:04:49;;;;;;;22.60;1.80;;;6.80;99.90;;;;;;5047985;28;20025;-73
2024/01/23 03:07:15;;;;;;;26.42;2.83;;;6.90;99.90;;;;;;5045275;28;20033;-73
2024/01/23 03:09:41;;;;;;;22.95;2.05;;;6.90;99.90;;;;;;5051943;28;20028;-73
2024/01/23 03:12:15;;;;;;;25.30;1.88;;;6.90;99.90;;;;;;5044316;28;20026;-73
2024/01/23 03:14:43;;;;;;;23.85;2.22;;;6.90;99.90;;;;;;5045595;28;20025;-73
2024/01/23 03:17:12;;;;;;;16.38;1.35;;;7.00;99.90;;;;;;5040663;28;20120;-73
2024/01/23 03:19:39;;;;;;;18.08;2.33;;;6.90;99.90;;;;;;5053321;28;20376;-73
2024/01/23 03:22:05;;;;;;;16.13;1.38;;;6.90;99.90;;;;;;5047245;28;20029;-73
2024/01/23 03:24:31;;;;;;;17.75;2.28;;;7.00;99.90;;;;;;5040058;28;20017;-74
2024/01/23 03:26:57;;;;;;;21.33;2.03;;;7.00;99.90;;;;;;5033511;28;20039;-73
2024/01/23 03:29:24;;;;;;;15.25;1.70;;;7.00;99.90;;;;;;5044682;28;20025;-73
2024/01/23 03:31:50;;;;;;;22.13;2.17;;;7.00;99.90;;;;;;5057539;28;20473;-73
2024/01/23 03:34:16;;;;;;;24.65;2.33;;;7.00;99.90;;;;;;5040564;28;20080;-74
2024/01/23 03:36:42;;;;;;;19.55;2.35;;;7.00;99.90;;;;;;5044801;28;20037;-74
2024/01/23 03:39:08;;;;;;;23.92;2.50;;;7.00;99.90;;;;;;5046226;28;20032;-74
2024/01/23 03:41:37;;;;;;;19.33;1.60;;;7.00;99.90;;;;;;5046570;28;20096;-73
2024/01/23 03:44:05;;;;;;;22.25;2.03;;;6.90;99.90;;;;;;5040281;28;20037;-74
2024/01/23 03:46:30;;;;;;;20.00;1.83;;;6.90;99.90;;;;;;5042441;28;20543;-74
2024/01/23 03:48:56;;;;;;;23.88;2.00;;;6.90;99.90;;;;;;5047780;28;20081;-74
2024/01/23 03:51:22;;;;;;;14.32;1.70;;;6.80;99.90;;;;;;5063301;28;20036;-74
2024/01/23 03:53:47;;;;;;;20.60;3.15;;;6.80;99.90;;;;;;5045770;28;20025;-74
2024/01/23 03:56:13;;;;;;;19.55;1.73;;;6.70;99.90;;;;;;5039919;28;20036;-74
2024/01/23 03:58:40;;;;;;;19.50;1.63;;;6.70;99.90;;;;;;5050944;28;20040;-74
2024/01/23 04:01:07;;;;;;;14.57;1.35;;;6.60;99.90;;;;;;5052920;28;20036;-74
2024/01/23 04:03:32;;;;;;;22.75;2.10;;;6.60;99.90;;;;;;5032004;28;20021;-74
2024/01/23 04:05:58;;;;;;;22.95;1.90;;;6.50;99.90;;;;;;5040404;28;20087;-74
2024/01/23 04:08:24;;;;;;;24.88;2.72;;;6.50;99.90;;;;;;5043571;28;20500;-74
2024/01/23 04:10:49;;;;;;;23.88;2.85;;;6.40;99.90;;;;;;5051268;28;20021;-74
2024/01/23 04:13:15;;;;;;;19.80;1.85;;;6.40;99.90;;;;;;5034283;28;20021;-74
2024/01/23 04:15:40;;;;;;;16.80;1.80;;;6.40;99.90;;;;;;5044008;28;20025;-74
2024/01/23 04:18:06;;;;;;;19.58;1.77;;;6.30;99.90;;;;;;5041185;28;20116;-74
2024/01/23 04:20:32;;;;;;;23.85;3.70;;;6.30;99.90;;;;;;5054704;28;20492;-72
2024/01/23 04:22:58;;;;;;;27.15;2.55;;;6.20;99.90;;;;;;5035774;28;20045;-72
2024/01/23 04:25:24;;;;;;;22.27;1.50;;;6.20;99.90;;;;;;5044072;28;20025;-72
2024/01/23 04:27:50;;;;;;;22.55;2.30;;;6.20;99.90;;;;;;5052178;28;20027;-73
2024/01/23 04:30:16;;;;;;;25.33;2.58;;;6.10;99.90;;;;;;5039573;28;20091;-72
2024/01/23 04:32:42;;;;;;;25.50;2.70;;;6.10;99.90;;;;;;5043333;28;20026;-73
2024/01/23 04:35:07;;;;;;;13.85;2.17;;;6.10;99.90;;;;;;5035846;28;20080;-73
2024/01/23 04:37:33;;;;;;;17.60;2.03;;;6.10;99.90;;;;;;5042064;28;20072;-74
2024/01/23 04:39:59;;;;;;;18.98;1.77;;;6.10;99.90;;;;;;5038150;28;20083;-74
2024/01/23 04:42:25;;;;;;;28.55;2.30;;;6.00;99.90;;;;;;5035648;28;20473;-74
2024/01/23 04:44:51;;;;;;;15.52;1.75;;;6.00;99.90;;;;;;5048731;28;20048;-74
2024/01/23 04:47:17;;;;;;;21.38;2.08;;;6.00;99.90;;;;;;5050570;28;20029;-75
2024/01/23 04:49:42;;;;;;;25.13;2.42;;;6.00;99.90;;;;;;5046207;28;20044;-74
2024/01/23 04:52:08;;;;;;;32.33;2.45;;;5.90;99.90;;;;;;5060911;28;20024;-74
2024/01/23 04:54:33;;;;;;;23.00;2.78;;;5.90;99.90;;;;;;5046515;28;20389;-74
2024/01/23 04:56:59;;;;;;;20.77;1.98;;;5.80;99.90;;;;;;5039135;28;20512;-74
2024/01/23 04:59:24;;;;;;;23.63;2.30;;;5.90;99.90;;;;;;5032587;28;20013;-74
2024/01/23 05:01:50;;;;;;;25.38;3.90;;;5.90;99.90;;;;;;5030357;28;20033;-74
2024/01/23 05:04:16;;;;;;;20.67;2.72;;;5.80;99.90;;;;;;5048626;28;20625;-74
2024/01/23 05:06:41;;;;;;;30.60;2.58;;;5.80;99.90;;;;;;5037928;28;20029;-74
2024/01/23 05:09:07;;;;;;;18.63;1.90;;;5.80;99.90;;;;;;5063497;28;20026;-75
2024/01/23 05:11:32;;;;;;;16.25;1.80;;;5.80;99.90;;;;;;5034911;28;20021;-74
2024/01/23 05:13:58;;;;;;;21.63;2.78;;;5.80;99.90;;;;;;5041008;28;20022;-74
2024/01/23 05:16:24;;;;;;;17.15;2.28;;;5.80;99.90;;;;;;5049249;28;20047;-75
2024/01/23 05:18:49;;;;;;;16.23;1.58;;;5.80;99.90;;;;;;5049642;28;20107;-74
2024/01/23 05:21:15;;;;;;;19.65;1.52;;;5.80;99.90;;;;;;5055839;28;20036;-74
2024/01/23 05:23:41;;;;;;;23.83;2.38;;;5.80;99.90;;;;;;5065820;28;20017;-74
2024/01/23 05:26:07;;;;;;;20.02;2.08;;;5.80;99.90;;;;;;5043629;28;20083;-75
2024/01/23 05:28:33;;;;;;;22.33;1.92;;;5.80;99.90;;;;;;5049623;28;20021;-74
2024/01/23 05:30:58;;;;;;;27.05;2.03;;;5.70;99.90;;;;;;5048771;28;20035;-74
2024/01/23 05:33:24;;;;;;;23.13;2.03;;;5.70;99.90;;;;;;5044272;28;20025;-74
2024/01/23 05:35:49;;;;;;;19.95;1.60;;;5.70;99.90;;;;;;5061058;28;20066;-75
2024/01/23 05:38:15;;;;;;;24.17;3.50;;;5.70;99.90;;;;;;5035261;28;20476;-74
2024/01/23 05:40:41;;;;;;;20.98;2.30;;;5.70;99.90;;;;;;5036020;28;20079;-75
2024/01/23 05:43:07;;;;;;;29.13;2.83;;;5.70;99.90;;;;;;5050274;28;20103;-75
2024/01/23 05:45:32;;;;;;;19.17;2.25;;;5.70;99.90;;;;;;5048968;28;20041;-74
2024/01/23 05:47:58;;;;;;;17.58;1.33;;;5.70;99.90;;;;;;5053034;28;20112;-75
2024/01/23 05:50:24;;;;;;;25.35;2.30;;;5.70;99.90;;;;;;5046816;28;20033;-75
2024/01/23 05:52:50;;;;;;;21.98;2.35;;;5.70;99.90;;;;;;5044695;28;20035;-74
2024/01/23 05:55:15;;;;;;;16.77;1.52;;;5.70;99.90;;;;;;5049972;28;20112;-75
2024/01/23 05:57:41;;;;;;;23.75;2.67;;;5.60;99.90;;;;;;5056389;28;20071;-75
2024/01/23 06:00:11;;;;;;;20.48;2.15;;;5.70;99.90;;;;;;5044067;28;20024;-75
2024/01/23 06:02:37;;;;;;;23.42;1.70;;;5.60;99.90;;;;;;5041890;28;20032;-75
2024/01/23 06:05:03;;;;;;;19.83;2.20;;;5.60;99.90;;;;;;5048113;28;20021;-75
2024/01/23 06:07:28;;;;;;;13.82;1.20;;;5.60;99.90;;;;;;5044899;28;20025;-74
2024/01/23 06:09:54;;;;;;;18.40;2.08;;;5.50;99.90;;;;;;5056668;28;20046;-75
2024/01/23 06:12:20;;;;;;;16.92;1.10;;;5.50;99.90;;;;;;5041855;28;20026;-74
2024/01/23 06:14:46;;;;;;;16.15;2.13;;;5.50;99.90;;;;;;5056336;28;20021;-74
2024/01/23 06:17:11;;;;;;;19.30;1.33;;;5.50;99.90;;;;;;5043348;28;20036;-75
2024/01/23 06:19:40;;;;;;;26.20;2.10;;;5.50;99.90;;;;;;5051045;28;20040;-74
2024/01/23 06:22:05;;;;;;;20.08;1.52;;;5.50;99.90;;;;;;5041299;28;20079;-75
2024/01/23 06:24:31;;;;;;;21.27;2.97;;;5.50;99.90;;;;;;5056373;28;20024;-74
2024/01/23 06:26:57;;;;;;;26.08;2.28;;;5.50;99.90;;;;;;5040371;28;20187;-75
2024/01/23 06:29:23;;;;;;;22.42;2.28;;;5.50;99.90;;;;;;5053284;28;20095;-75
2024/01/23 06:31:49;;;;;;;23.60;1.52;;;5.50;99.90;;;;;;5056530;28;20037;-74
2024/01/23 06:34:16;;;;;;;26.42;2.08;;;5.50;99.90;;;;;;5044101;28;20028;-75
2024/01/23 06:36:48;;;;;;;22.60;1.85;;;5.50;99.90;;;;;;5046408;28;20029;-74
2024/01/23 06:39:14;;;;;;;17.73;1.73;;;5.50;99.90;;;;;;5044403;28;20388;-74
2024/01/23 06:41:39;;;;;;;15.82;1.85;;;5.50;99.90;;;;;;5035603;28;20029;-75
2024/01/23 06:44:05;;;;;;;18.55;1.20;;;5.50;99.90;;;;;;5071218;28;20056;-72
2024/01/23 06:46:30;;;;;;;22.15;1.85;;;5.50;99.90;;;;;;5042556;28;20032;-72
2024/01/23 06:48:56;;;;;;;19.80;1.58;;;5.50;99.90;;;;;;5041388;28;20061;-72
2024/01/23 06:51:22;;;;;;;25.25;1.70;;;5.40;99.90;;;;;;5051040;28;20033;-72
2024/01/23 06:53:47;;;;;;;26.40;3.22;;;5.40;99.90;;;;;;5049298;28;20009;-72
2024/01/23 06:56:13;;;;;;;27.85;2.33;;;5.40;99.90;;;;;;5034702;28;20424;-73
2024/01/23 06:58:38;;;;;;;23.38;2.05;;;5.40;99.90;;;;;;5035505;28;20068;-72
2024/01/23 07:01:04;;;;;;;18.35;1.63;;;5.40;99.90;;;;;;5052885;28;20388;-72
2024/01/23 07:03:30;;;;;;;16.77;1.30;;;5.40;99.90;;;;;;5052522;28;20036;-72
2024/01/23 07:05:56;;;;;;;16.88;1.40;;;5.30;99.90;;;;;;5071959;28;20020;-74
2024/01/23 07:08:21;;;;;;;22.48;2.17;;;5.30;99.90;;;;;;5046775;28;20500;-74
2024/01/23 07:10:47;;;;;;;25.05;3.13;;;5.30;99.90;;;;;;5033808;28;20095;-75
2024/01/23 07:13:13;;;;;;;14.85;2.00;;;5.30;99.90;;;;;;5039554;28;20040;-73
2024/01/23 07:15:39;;;;;;;19.55;1.63;;;5.30;99.90;;;;;;5036777;28;20021;-73
2024/01/23 07:18:04;;;;;;;20.40;2.28;;;5.30;99.90;;;;;;5038301;28;20044;-74
2024/01/23 07:20:30;;;;;;;22.23;2.63;;;5.30;99.90;;;;;;5053689;28;20492;-74
2024/01/23 07:22:55;;;;;;;22.70;1.90;;;5.30;99.90;;;;;;5042050;28;20029;-76
2024/01/23 07:25:21;;;;;;;21.17;1.45;;;5.30;99.90;;;;;;5052412;28;20080;-75
2024/01/23 07:27:47;;;;;;;21.58;2.22;;;5.30;99.90;;;;;;5035081;28;20025;-75
2024/01/23 07:30:12;;;;;;;18.50;1.95;;;5.30;99.90;;;;;;5035912;28;20064;-75
2024/01/23 07:32:38;;;;;;;15.50;1.50;;;5.30;99.90;;;;;;5057761;28;20048;-74
2024/01/23 07:35:04;;;;;;;28.33;2.92;;;5.30;99.90;;;;;;5047402;28;20032;-74
2024/01/23 07:37:29;;;;;;;22.90;2.30;;;5.20;99.90;;;;;;5051915;28;20461;-75
2024/01/23 07:39:55;;;;;;;16.60;1.77;;;5.20;99.90;;;;;;5038089;28;20025;-74
2024/01/23 07:42:20;;;;;;;29.60;1.95;;;5.20;99.90;;;;;;5044880;28;20024;-74
2024/01/23 07:44:47;;;;;;;23.83;2.65;;;5.20;99.90;;;;;;5039423;28;20045;-75
2024/01/23 07:47:12;;;;;;;24.67;2.08;;;5.30;99.90;;;;;;5030860;28;20029;-74
2024/01/23 07:49:38;;;;;;;27.63;2.25;;;5.20;99.90;;;;;;5048779;28;20080;-74
2024/01/23 07:52:04;;;;;;;17.50;1.67;;;5.20;99.90;;;;;;5045903;28;20072;-74
2024/01/23 07:54:32;;;;;;;22.38;1.98;;;5.20;99.90;;;;;;5044420;28;20073;-74
2024/01/23 07:56:58;;;;;;;22.13;1.88;;;5.20;99.90;;;;;;5040454;28;20044;-74
2024/01/23 07:59:24;;;;;;;24.38;3.25;;;5.20;99.90;;;;;;5046047;28;20104;-75
2024/01/23 08:01:49;;;;;;;19.55;1.60;;;5.20;99.90;;;;;;5039132;28;20480;-74
2024/01/23 08:04:15;;;;;;;16.85;2.10;;;5.20;99.90;;;;;;5034129;28;20033;-75
2024/01/23 08:06:41;;;;;;;21.88;2.67;;;5.20;99.90;;;;;;5037919;28;20589;-73
2024/01/23 08:09:07;;;;;;;20.40;2.10;;;5.10;99.90;;;;;;5034578;28;20031;-75
2024/01/23 08:11:33;;;;;;;22.63;2.45;;;5.20;99.90;;;;;;5040516;28;20060;-75
2024/01/23 08:13:59;;;;;;;27.25;2.25;;;5.20;99.90;;;;;;5039627;28;20446;-74
2024/01/23 08:16:27;;;;;;;21.90;2.38;;;5.20;99.90;;;;;;5050014;28;20032;-74
2024/01/23 08:18:53;;;;;;;31.98;1.90;;;5.20;99.90;;;;;;5044612;28;20033;-75
2024/01/23 08:21:18;;;;;;;20.88;1.88;;;5.30;99.90;;;;;;5036842;28;20032;-75
2024/01/23 08:23:44;;;;;;;24.52;1.52;;;5.30;99.90;;;;;;5041001;28;20480;-75
2024/01/23 08:26:10;;;;;;;17.65;1.70;;;5.30;99.90;;;;;;5039856;28;20764;-75
2024/01/23 08:28:36;;;;;;;24.33;2.67;;;5.30;99.90;;;;;;5036064;28;20415;-74
2024/01/23 08:31:03;;;;;;;29.33;3.08;;;5.40;99.90;;;;;;5034385;28;20183;-75
2024/01/23 08:33:30;;;;;;;23.50;2.15;;;5.40;99.90;;;;;;5035701;28;20016;-75
2024/01/23 08:35:56;;;;;;;27.15;2.88;;;5.40;99.90;;;;;;5034757;28;20033;-75
2024/01/23 08:38:21;;;;;;;23.40;1.90;;;5.50;99.90;;;;;;5037215;28;20033;-75
2024/01/23 08:40:47;;;;;;;24.55;2.08;;;5.50;99.90;;;;;;5041720;28;20074;-75
2024/01/23 08:43:13;;;;;;;20.30;2.13;;;5.50;99.90;;;;;;5040199;28;20032;-75
2024/01/23 08:45:38;;;;;;;23.48;2.53;;;5.50;99.90;;;;;;5035322;28;20476;-76
2024/01/23 08:48:04;;;;;;;23.70;2.67;;;5.60;99.90;;;;;;5033551;28;20032;-75
2024/01/23 08:50:30;;;;;;;31.65;2.40;;;5.60;99.90;;;;;;5036922;28;20094;-74
2024/01/23 08:52:56;;;;;;;29.63;3.22;;;5.70;99.90;;;;;;5036810;28;20032;-75
2024/01/23 08:55:21;;;;;;;21.42;2.78;;;5.70;99.90;;;;;;5039370;28;20073;-75
2024/01/23 08:57:47;;;;;;;21.02;1.85;;;5.70;99.90;;;;;;5036061;28;20469;-74
2024/01/23 09:00:13;;;;;;;18.58;2.33;;;5.80;99.90;;;;;;5036080;28;21986;-75
2024/01/23 09:02:39;;;;;;;28.35;2.60;;;5.90;99.90;;;;;;5038611;28;20034;-74
2024/01/23 09:05:05;;;;;;;27.63;5.40;;;5.90;99.90;;;;;;5042135;28;20033;-74
2024/01/23 09:07:30;;;;;;;23.35;3.13;;;5.90;99.90;;;;;;5037825;28;20466;-74
2024/01/23 09:09:56;;;;;;;19.83;1.77;;;5.90;99.90;;;;;;5034484;28;20029;-75
2024/01/23 09:12:22;;;;;;;21.00;2.65;;;6.00;99.90;;;;;;5036281;28;20041;-74
2024/01/23 09:14:48;;;;;;;20.05;2.30;;;6.10;99.90;;;;;;5036866;28;20113;-74
2024/01/23 09:17:14;;;;;;;26.02;2.78;;;6.10;99.90;;;;;;5034696;28;20108;-74
2024/01/23 09:19:39;;;;;;;22.90;2.13;;;6.20;99.90;;;;;;5035615;28;20041;-74
2024/01/23 09:22:06;;;;;;;24.98;2.58;;;6.30;99.90;;;;;;5035391;28;20479;-74
2024/01/23 09:24:32;;;;;;;30.00;3.38;;;6.30;99.90;;;;;;5036584;28;20440;-74
2024/01/23 09:27:01;;;;;;;27.42;2.22;;;6.40;99.90;;;;;;5029142;28;20033;-75
2024/01/23 09:29:27;;;;;;;25.67;2.53;;;6.40;99.90;;;;;;5028343;28;20021;-74
2024/01/23 09:31:53;;;;;;;25.15;2.65;;;6.50;99.90;;;;;;5040717;28;20029;-73
2024/01/23 09:34:19;;;;;;;18.17;2.53;;;6.50;99.90;;;;;;5037848;28;20107;-74
2024/01/23 09:36:44;;;;;;;23.02;1.80;;;6.60;99.90;;;;;;5027200;28;20167;-74
2024/01/23 09:39:13;;;;;;;14.55;1.95;;;6.70;99.90;;;;;;5029842;28;20025;-76
2024/01/23 09:41:49;;;;;;;18.92;2.90;;;6.70;99.90;;;;;;5035035;28;20082;-75
2024/01/23 09:44:16;;;;;;;30.30;3.92;;;6.80;99.90;;;;;;5037930;28;20041;-75
2024/01/23 09:46:47;;;;;;;17.27;2.38;;;6.90;99.90;;;;;;5031942;28;20029;-75
2024/01/23 09:49:14;;;;;;;30.45;3.58;;;7.00;99.90;;;;;;5028496;28;20025;-74
2024/01/23 09:51:43;;;;;;;23.85;2.40;;;7.10;99.90;;;;;;5033228;28;20079;-74
2024/01/23 09:54:12;;;;;;;32.75;3.17;;;7.10;99.90;;;;;;5035427;28;20044;-74
2024/01/23 09:56:42;;;;;;;22.85;2.70;;;7.20;99.90;;;;;;5033491;28;20029;-75
2024/01/23 09:59:10;;;;;;;25.05;2.65;;;7.20;99.90;;;;;;5037184;28;20090;-75
2024/01/23 10:01:37;;;;;;;35.85;4.88;;;7.30;99.90;;;;;;5039765;28;20454;-75
2024/01/23 10:04:04;;;;;;;26.17;3.33;;;7.30;99.90;;;;;;5039621;28;20064;-75
2024/01/23 10:06:30;;;;;;;22.58;2.88;;;7.30;99.90;;;;;;5039344;28;20026;-75
2024/01/23 10:08:56;;;;;;;20.20;2.00;;;7.30;99.90;;;;;;5055824;28;20031;-76
2024/01/23 10:11:22;;;;;;;16.88;2.08;;;7.30;99.90;;;;;;5041984;28;20116;-75
2024/01/23 10:13:48;;;;;;;22.98;3.80;;;7.40;99.90;;;;;;5041503;28;20076;-76
2024/01/23 10:16:16;;;;;;;22.35;2.10;;;7.30;99.90;;;;;;5038721;28;20014;-76
2024/01/23 10:18:42;;;;;;;20.05;2.35;;;7.40;99.90;;;;;;5039925;28;20036;-76
2024/01/23 10:21:08;;;;;;;27.30;3.00;;;7.40;99.90;;;;;;5038514;28;20025;-75
2024/01/23 10:23:34;;;;;;;29.75;3.08;;;7.50;99.90;;;;;;5038392;28;20025;-75
2024/01/23 10:25:59;;;;;;;20.02;2.40;;;7.60;99.90;;;;;;5040377;28;20086;-75
2024/01/23 10:28:25;;;;;;;23.52;2.03;;;7.60;99.90;;;;;;5032176;28;20034;-75
2024/01/23 10:30:51;;;;;;;22.42;2.58;;;7.60;99.90;;;;;;5026231;28;20040;-75
2024/01/23 10:33:17;;;;;;;22.35;3.33;;;7.70;99.90;;;;;;5030810;28;20079;-75
2024/01/23 10:35:43;;;;;;;22.33;3.28;;;7.70;99.90;;;;;;5029674;28;20021;-75
2024/01/23 10:38:16;;;;;;;20.65;3.58;;;7.70;99.90;;;;;;5041967;28;20501;-75
2024/01/23 10:40:46;;;;;;;23.00;3.63;;;7.70;99.90;;;;;;5049382;28;20029;-74
2024/01/23 10:43:17;;;;;;;21.60;2.38;;;7.70;99.90;;;;;;5037576;28;20129;-75
2024/01/23 10:45:45;;;;;;;17.42;2.33;;;7.80;99.90;;;;;;5037805;28;20060;-75
2024/01/23 10:48:11;;;;;;;24.67;2.60;;;7.90;99.90;;;;;;5043072;28;20056;-74
2024/01/23 10:50:38;;;;;;;24.77;2.78;;;7.90;99.90;;;;;;5057607;28;20528;-74
2024/01/23 10:53:06;;;;;;;19.50;2.17;;;7.90;99.90;;;;;;5046763;28;20484;-74
2024/01/23 10:55:35;;;;;;;24.20;3.10;;;7.90;99.90;;;;;;5042873;28;20021;-74
2024/01/23 10:58:19;;;;;;;24.60;2.92;;;7.80;99.90;;;;;;5037016;28;20138;-75
2024/01/23 11:00:48;;;;;;;24.50;4.28;;;7.80;99.90;;;;;;5037494;28;20025;-74
2024/01/23 11:03:14;;;;;;;23.98;2.83;;;7.90;99.90;;;;;;5032866;28;20025;-74
2024/01/23 11:06:18;;;;;;;24.75;3.30;;;7.90;99.90;;;;;;5042627;28;20163;-75
2024/01/23 11:09:02;;;;;;;22.63;2.63;;;8.00;99.90;;;;;;5052195;28;20037;-75
2024/01/23 11:11:46;;;;;;;19.35;1.90;;;8.10;99.90;;;;;;5028938;28;20094;-74
2024/01/23 11:14:23;;;;;;;24.83;3.03;;;8.10;99.90;;;;;;5039547;28;20041;-74
2024/01/23 11:17:09;;;;;;;16.98;2.10;;;8.10;99.90;;;;;;5032995;28;20033;-75
2024/01/23 11:19:46;;;;;;;28.40;2.03;;;8.20;99.90;;;;;;5037654;28;20369;-74
2024/01/23 11:22:12;;;;;;;27.25;3.17;;;8.10;99.90;;;;;;5047241;28;20519;-75
2024/01/23 11:24:44;;;;;;;22.65;2.35;;;8.10;99.90;;;;;;5037847;28;20489;-76
2024/01/23 11:27:20;;;;;;;;;;;8.10;99.90;;;;;;5055336;28;20052;-75
2024/01/23 11:29:47;;;;;;;19.30;4.32;;;8.10;99.90;;;;;;5057180;28;20007;-76
2024/01/23 11:32:24;;;;;;;16.58;1.92;;;8.10;99.90;;;;;;5039188;28;20503;-73
2024/01/23 11:35:03;;;;;;;24.65;2.65;;;8.20;99.90;;;;;;5041340;28;20105;-73
2024/01/23 11:37:48;;;;;;;22.27;2.70;;;8.20;99.90;;;;;;5048078;28;20036;-75
2024/01/23 11:40:29;;;;;;;28.92;3.33;;;8.20;99.90;;;;;;5040526;28;20014;-75
2024/01/23 11:42:55;;;;;;;18.02;2.22;;;8.20;99.90;;;;;;5044980;28;20060;-75
2024/01/23 11:45:25;;;;;;;26.88;2.58;;;8.20;99.90;;;;;;5032127;28;20127;-76
2024/01/23 11:48:03;;;;;;;21.58;3.70;;;8.20;99.90;;;;;;5044869;28;20024;-75
2024/01/23 11:50:31;;;;;;;22.73;2.67;;;8.30;99.90;;;;;;5041119;28;20029;-75
2024/01/23 11:52:58;;;;;;;19.95;2.42;;;8.30;99.90;;;;;;5046949;28;20047;-75
2024/01/23 11:55:25;;;;;;;27.83;3.42;;;8.30;99.90;;;;;;5038804;28;20036;-75
2024/01/23 11:57:52;;;;;;;25.05;2.85;;;8.30;99.90;;;;;;5051145;28;20110;-74
2024/01/23 12:00:19;;;;;;;20.60;2.47;;;8.40;99.90;;;;;;5042427;28;20026;-74
2024/01/23 12:02:46;;;;;;;26.52;3.63;;;8.40;99.90;;;;;;5033695;28;20041;-75
2024/01/23 12:05:13;;;;;;;22.70;2.88;;;8.40;99.90;;;;;;5044570;28;20033;-74
2024/01/23 12:07:40;;;;;;;19.60;2.72;;;8.50;99.90;;;;;;5036453;28;20036;-73
2024/01/23 12:10:07;;;;;;;19.10;2.47;;;8.60;99.90;;;;;;5053863;28;20017;-74
2024/01/23 12:12:33;;;;;;;19.60;2.42;;;8.60;99.90;;;;;;5041758;28;20024;-76
2024/01/23 12:14:58;;;;;;;17.23;2.03;;;8.60;99.90;;;;;;5041358;28;20156;-75
2024/01/23 12:17:24;;;;;;;27.55;3.10;;;8.70;99.90;;;;;;5030403;28;20041;-76
2024/01/23 12:19:49;;;;;;;17.00;2.10;;;8.70;99.90;;;;;;5037183;28;20120;-74
2024/01/23 12:22:16;;;;;;;18.50;2.22;;;8.80;99.90;;;;;;5047831;28;20035;-74
2024/01/23 12:24:42;;;;;;;22.85;2.83;;;8.90;99.90;;;;;;5045293;28;20380;-74
2024/01/23 12:27:11;;;;;;;17.67;1.98;;;9.00;99.90;;;;;;5030716;28;20094;-75
2024/01/23 12:29:38;;;;;;;17.73;2.03;;;9.10;99.90;;;;;;5027528;28;20029;-74
2024/01/23 12:32:04;;;;;;;24.98;2.17;;;9.10;99.90;;;;;;5032443;28;20112;-74
2024/01/23 12:34:30;;;;;;;17.75;2.40;;;9.20;99.90;;;;;;5042442;28;20103;-74
2024/01/23 12:36:59;;;;;;;31.77;3.28;;;9.30;99.90;;;;;;5050855;28;20049;-75
2024/01/23 12:39:30;;;;;;;24.55;2.60;;;9.30;99.90;;;;;;5047333;28;20022;-75
2024/01/23 12:42:00;;;;;;;18.80;2.08;;;9.20;99.90;;;;;;5037888;28;20025;-75
2024/01/23 12:44:26;;;;;;;15.82;1.90;;;9.20;99.90;;;;;;5038079;28;20048;-74
2024/01/23 12:46:52;;;;;;;18.90;2.30;;;9.10;99.90;;;;;;5044642;28;20044;-74